Time;durP1;ratioP1;P1;durP2;ratioP2;P2;SDS_P1;SDS_P2;PMS_P1;PMS_P2;Temp;Humidity;BMP_temperature;BMP_pressure;BME280_temperature;BME280_humidity;BME280_pressure;Samples;Min_cycle;Max_cycle;Signal;HPM_P1;HPM_P2
2023/07/07 00:00:55;;;;;;;;;22.67;21.00;;;;;;;;5026476;28;47120;-75
2023/07/07 00:03:20;;;;;;;;;31.33;27.33;;;;;;;;5022491;28;46037;-77
2023/07/07 00:05:47;;;;;;;;;29.33;26.00;;;;;;;;5023237;28;45570;-77
2023/07/07 00:08:12;;;;;;;;;29.33;24.67;;;;;;;;5028050;28;45591;-80
2023/07/07 00:10:38;;;;;;;;;28.67;23.00;;;;;;;;5029654;28;45634;-81
2023/07/07 00:13:03;;;;;;;;;27.67;23.33;;;;;;;;5018930;28;46872;-80
2023/07/07 00:15:29;;;;;;;;;25.67;24.67;;;;;;;;5032950;28;45877;-80
2023/07/07 00:17:54;;;;;;;;;23.67;19.33;;;;;;;;5027530;28;46048;-74
2023/07/07 00:20:21;;;;;;;;;31.00;26.00;;;;;;;;5018137;28;45749;-77
2023/07/07 00:22:47;;;;;;;;;27.00;25.00;;;;;;;;5028840;28;45541;-75
2023/07/07 00:25:12;;;;;;;;;15.33;12.67;;;;;;;;5029165;28;45849;-77
2023/07/07 00:27:37;;;;;;;;;22.67;21.67;;;;;;;;5031283;28;45876;-81
2023/07/07 00:30:03;;;;;;;;;22.00;19.67;;;;;;;;5040451;28;46000;-81
2023/07/07 00:32:29;;;;;;;;;24.67;19.67;;;;;;;;5034935;28;45565;-81
2023/07/07 00:34:55;;;;;;;;;18.67;18.00;;;;;;;;5032125;28;45546;-80
2023/07/07 00:37:20;;;;;;;;;19.33;18.33;;;;;;;;5031049;28;45557;-81
2023/07/07 00:39:45;;;;;;;;;25.00;22.67;;;;;;;;5029313;28;45877;-80
2023/07/07 00:42:10;;;;;;;;;23.00;18.67;;;;;;;;5027570;28;47121;-75
2023/07/07 00:44:54;;;;;;;;;21.33;17.67;;;;;;;;5028759;28;45552;-79
2023/07/07 00:47:20;;;;;;;;;19.67;16.33;;;;;;;;5028690;28;45434;-81
2023/07/07 00:49:45;;;;;;;;;19.67;15.67;;;;;;;;5030787;28;45381;-76
2023/07/07 00:52:10;;;;;;;;;22.67;20.00;;;;;;;;5028759;28;46385;-76
2023/07/07 00:54:36;;;;;;;;;20.00;17.67;;;;;;;;5023046;28;45623;-80
2023/07/07 00:57:02;;;;;;;;;21.33;17.33;;;;;;;;5014813;28;45559;-81
2023/07/07 00:59:39;;;;;;;;;18.33;16.33;;;;;;;;5016142;28;47293;-80
2023/07/07 01:02:07;;;;;;;;;16.33;16.00;;;;;;;;5026229;28;45683;-79
2023/07/07 01:04:32;;;;;;;;;15.67;15.67;;;;;;;;4996275;28;45629;-80
2023/07/07 01:07:01;;;;;;;;;16.00;14.67;;;;;;;;5025793;28;45617;-79
2023/07/07 01:09:26;;;;;;;;;17.67;14.00;;;;;;;;5034050;28;45767;-80
2023/07/07 01:11:51;;;;;;;;;11.00;10.33;;;;;;;;5033320;28;46045;-80
2023/07/07 01:14:19;;;;;;;;;19.67;13.67;;;;;;;;5032898;28;45758;-81
2023/07/07 01:17:12;;;;;;;;;11.00;11.00;;;;;;;;5033398;28;45344;-80
2023/07/07 01:19:40;;;;;;;;;18.67;14.00;;;;;;;;4980402;28;46606;-76
2023/07/07 01:22:15;;;;;;;;;13.00;9.00;;;;;;;;5014377;28;47204;-75
2023/07/07 01:25:00;;;;;;;;;12.67;8.67;;;;;;;;5023020;28;45968;-77
2023/07/07 01:27:32;;;;;;;;;14.33;9.67;;;;;;;;4976794;28;46112;-75
2023/07/07 01:30:16;;;;;;;;;11.00;9.00;;;;;;;;5031031;28;45682;-75
2023/07/07 01:32:42;;;;;;;;;12.00;12.00;;;;;;;;5031147;28;46506;-76
2023/07/07 01:35:11;;;;;;;;;5.00;4.00;;;;;;;;5030741;28;45809;-75
2023/07/07 01:37:36;;;;;;;;;9.67;7.67;;;;;;;;5012223;28;45921;-75
2023/07/07 01:40:03;;;;;;;;;5.00;3.00;;;;;;;;5032579;28;45703;-75
2023/07/07 01:42:34;;;;;;;;;7.33;7.33;;;;;;;;5026693;28;45521;-75
2023/07/07 01:45:18;;;;;;;;;13.00;9.00;;;;;;;;5024872;28;45680;-75
2023/07/07 01:47:49;;;;;;;;;7.67;7.67;;;;;;;;5026325;28;45345;-76
2023/07/07 01:50:20;;;;;;;;;9.67;9.67;;;;;;;;5033226;28;45540;-75
2023/07/07 01:52:52;;;;;;;;;9.33;7.33;;;;;;;;5031381;28;45713;-76
2023/07/07 01:55:19;;;;;;;;;8.33;8.33;;;;;;;;5029555;28;45896;-75
2023/07/07 01:57:46;;;;;;;;;9.00;9.00;;;;;;;;5012159;28;45763;-76
2023/07/07 02:00:12;;;;;;;;;9.00;8.00;;;;;;;;5026375;28;45617;-74
2023/07/07 02:02:37;;;;;;;;;7.33;7.33;;;;;;;;5008899;28;46250;-75
2023/07/07 02:05:03;;;;;;;;;8.33;7.33;;;;;;;;5005694;28;45441;-75
2023/07/07 02:07:32;;;;;;;;;9.67;9.67;;;;;;;;5015702;28;45727;-77
2023/07/07 02:09:57;;;;;;;;;7.67;7.00;;;;;;;;5016698;28;45907;-78
2023/07/07 02:12:22;;;;;;;;;7.00;7.00;;;;;;;;5041964;28;45428;-79
2023/07/07 02:14:48;;;;;;;;;10.67;8.00;;;;;;;;5022408;28;45320;-80
2023/07/07 02:17:15;;;;;;;;;8.67;8.00;;;;;;;;5014738;28;45459;-79
2023/07/07 02:19:41;;;;;;;;;9.33;9.00;;;;;;;;5013608;28;47032;-81
2023/07/07 02:22:07;;;;;;;;;10.33;8.00;;;;;;;;5012494;28;45869;-81
2023/07/07 02:24:33;;;;;;;;;10.00;8.00;;;;;;;;5025001;28;45447;-80
2023/07/07 02:26:58;;;;;;;;;10.00;8.00;;;;;;;;5013484;28;45490;-80
2023/07/07 02:29:23;;;;;;;;;8.00;7.00;;;;;;;;5032841;28;45703;-79
2023/07/07 02:31:48;;;;;;;;;8.33;8.00;;;;;;;;5028541;28;45552;-80
2023/07/07 02:34:13;;;;;;;;;7.33;7.33;;;;;;;;5031297;28;45642;-81
2023/07/07 02:36:39;;;;;;;;;9.00;8.67;;;;;;;;5032178;28;46060;-80
2023/07/07 02:39:04;;;;;;;;;8.33;7.33;;;;;;;;5013718;28;45952;-79
2023/07/07 02:41:29;;;;;;;;;7.33;6.00;;;;;;;;5013442;28;46431;-79
2023/07/07 02:43:54;;;;;;;;;8.67;7.33;;;;;;;;5013465;28;45474;-79
2023/07/07 02:46:20;;;;;;;;;6.33;6.33;;;;;;;;5013827;28;45767;-80
2023/07/07 02:48:45;;;;;;;;;9.67;6.33;;;;;;;;5014757;28;45961;-80
2023/07/07 02:51:10;;;;;;;;;7.00;7.00;;;;;;;;5014865;28;46644;-78
2023/07/07 02:53:36;;;;;;;;;9.67;7.67;;;;;;;;5012322;28;45633;-79
2023/07/07 02:56:02;;;;;;;;;6.00;5.00;;;;;;;;5031250;28;45804;-78
2023/07/07 02:58:27;;;;;;;;;6.67;6.33;;;;;;;;5035445;28;45661;-79
2023/07/07 03:00:53;;;;;;;;;10.33;8.33;;;;;;;;5034978;28;45314;-80
2023/07/07 03:03:18;;;;;;;;;7.00;5.33;;;;;;;;5012933;28;45470;-78
2023/07/07 03:05:44;;;;;;;;;6.33;6.33;;;;;;;;5030810;28;45640;-79
2023/07/07 03:08:10;;;;;;;;;8.33;7.00;;;;;;;;5012615;28;46028;-79
2023/07/07 03:10:36;;;;;;;;;8.67;7.67;;;;;;;;5013528;28;45777;-80
2023/07/07 03:13:01;;;;;;;;;6.67;6.67;;;;;;;;5027738;28;45974;-80
2023/07/07 03:15:38;;;;;;;;;9.00;8.00;;;;;;;;5022450;28;45838;-80
2023/07/07 03:18:08;;;;;;;;;8.67;6.00;;;;;;;;5030846;28;45586;-80
2023/07/07 03:20:34;;;;;;;;;7.00;7.00;;;;;;;;5031371;28;46224;-78
2023/07/07 03:22:59;;;;;;;;;10.67;7.67;;;;;;;;5012727;28;45919;-79
2023/07/07 03:25:26;;;;;;;;;6.67;5.67;;;;;;;;5013458;28;45846;-79
2023/07/07 03:27:51;;;;;;;;;7.33;6.33;;;;;;;;5011657;28;45773;-79
2023/07/07 03:30:17;;;;;;;;;4.33;4.33;;;;;;;;5009810;28;47699;-80
2023/07/07 03:32:42;;;;;;;;;6.00;4.67;;;;;;;;5020796;28;45570;-80
2023/07/07 03:35:07;;;;;;;;;11.33;9.33;;;;;;;;5035661;28;45438;-80
2023/07/07 03:37:32;;;;;;;;;8.67;6.00;;;;;;;;5016672;28;45683;-83
2023/07/07 03:39:58;;;;;;;;;7.00;6.00;;;;;;;;5036432;28;45458;-78
2023/07/07 03:42:23;;;;;;;;;8.67;8.00;;;;;;;;5015033;28;45407;-79
2023/07/07 03:44:48;;;;;;;;;8.67;8.00;;;;;;;;5035566;28;46026;-79
2023/07/07 03:47:13;;;;;;;;;6.00;6.00;;;;;;;;5028916;28;47246;-79
2023/07/07 03:49:39;;;;;;;;;8.67;8.00;;;;;;;;5041007;28;45723;-80
2023/07/07 03:52:04;;;;;;;;;7.00;7.00;;;;;;;;5045614;28;44797;-80
2023/07/07 03:54:29;;;;;;;;;8.67;8.67;;;;;;;;5026809;28;45852;-78
2023/07/07 03:56:55;;;;;;;;;9.33;7.00;;;;;;;;5040822;28;45930;-79
2023/07/07 03:59:20;;;;;;;;;11.67;10.67;;;;;;;;5044993;28;46379;-79
2023/07/07 04:01:46;;;;;;;;;6.67;6.00;;;;;;;;5044107;28;45261;-80
2023/07/07 04:04:12;;;;;;;;;10.33;10.33;;;;;;;;5021916;28;45438;-79
2023/07/07 04:06:37;;;;;;;;;11.33;11.33;;;;;;;;5040222;28;45053;-79
2023/07/07 04:09:03;;;;;;;;;11.67;7.00;;;;;;;;5042049;28;45257;-79
2023/07/07 04:11:30;;;;;;;;;6.00;6.00;;;;;;;;5036141;28;45896;-79
2023/07/07 04:13:55;;;;;;;;;9.00;6.67;;;;;;;;5014312;28;45871;-79
2023/07/07 04:16:21;;;;;;;;;8.00;7.33;;;;;;;;5029287;28;45796;-79
2023/07/07 04:18:48;;;;;;;;;9.67;8.33;;;;;;;;5013856;28;46337;-79
2023/07/07 04:21:20;;;;;;;;;7.67;7.33;;;;;;;;5010140;28;46025;-78
2023/07/07 04:23:46;;;;;;;;;11.00;9.33;;;;;;;;5029841;28;45912;-79
2023/07/07 04:26:12;;;;;;;;;9.33;6.33;;;;;;;;5030456;28;45430;-80
2023/07/07 04:28:38;;;;;;;;;9.00;7.67;;;;;;;;5010309;28;46882;-79
2023/07/07 04:31:04;;;;;;;;;18.00;15.33;;;;;;;;5030196;28;45800;-79
2023/07/07 04:33:31;;;;;;;;;10.00;7.33;;;;;;;;5014849;28;45851;-81
2023/07/07 04:35:57;;;;;;;;;9.33;9.33;;;;;;;;5031201;28;45715;-81
2023/07/07 04:38:30;;;;;;;;;11.00;8.33;;;;;;;;5016514;28;46877;-80
2023/07/07 04:41:04;;;;;;;;;7.67;6.67;;;;;;;;5032416;28;45579;-80
2023/07/07 04:43:29;;;;;;;;;6.33;6.33;;;;;;;;5024116;28;45919;-82
2023/07/07 04:45:54;;;;;;;;;10.00;6.00;;;;;;;;5037508;28;45666;-79
2023/07/07 04:48:19;;;;;;;;;13.33;8.33;;;;;;;;5006834;28;45495;-80
2023/07/07 04:50:45;;;;;;;;;8.67;7.00;;;;;;;;5026382;28;45534;-81
2023/07/07 04:53:10;;;;;;;;;8.67;8.33;;;;;;;;5031272;28;45496;-82
2023/07/07 04:55:39;;;;;;;;;9.67;9.67;;;;;;;;5012919;28;47022;-79
2023/07/07 04:58:04;;;;;;;;;10.00;10.00;;;;;;;;5030233;28;45534;-78
2023/07/07 05:00:29;;;;;;;;;9.00;6.00;;;;;;;;5009887;28;45472;-82
2023/07/07 05:02:55;;;;;;;;;6.33;6.33;;;;;;;;5010698;28;45645;-83
2023/07/07 05:05:20;;;;;;;;;9.33;8.00;;;;;;;;5007935;28;45954;-82
2023/07/07 05:07:45;;;;;;;;;6.00;5.00;;;;;;;;5011863;28;48353;-82
2023/07/07 05:10:10;;;;;;;;;7.00;7.00;;;;;;;;5034747;28;45475;-80
2023/07/07 05:12:36;;;;;;;;;8.33;6.67;;;;;;;;5028803;28;45739;-81
2023/07/07 05:15:01;;;;;;;;;8.00;7.00;;;;;;;;5028140;28;45510;-81
2023/07/07 05:17:27;;;;;;;;;12.33;8.33;;;;;;;;5033531;28;45697;-83
2023/07/07 05:19:53;;;;;;;;;6.67;6.33;;;;;;;;5033853;28;45862;-84
2023/07/07 05:22:20;;;;;;;;;7.33;7.33;;;;;;;;5033861;28;45589;-81
2023/07/07 05:24:45;;;;;;;;;6.67;5.00;;;;;;;;5030174;28;45806;-82
2023/07/07 05:27:10;;;;;;;;;8.33;7.33;;;;;;;;5013076;28;46318;-83
2023/07/07 05:29:35;;;;;;;;;10.00;8.00;;;;;;;;5035654;28;45668;-83
2023/07/07 05:32:01;;;;;;;;;5.00;5.00;;;;;;;;5035576;28;45579;-84
2023/07/07 05:34:26;;;;;;;;;7.33;6.00;;;;;;;;5028726;28;46006;-83
2023/07/07 05:36:51;;;;;;;;;9.33;7.33;;;;;;;;5031765;28;45767;-84
2023/07/07 05:39:17;;;;;;;;;10.00;6.67;;;;;;;;5015301;28;45743;-82
2023/07/07 05:41:42;;;;;;;;;10.33;6.33;;;;;;;;5015544;28;45804;-81
2023/07/07 05:44:07;;;;;;;;;8.33;8.33;;;;;;;;5011987;28;46009;-80
2023/07/07 05:46:32;;;;;;;;;8.67;8.67;;;;;;;;5027772;28;45532;-82
2023/07/07 05:48:58;;;;;;;;;8.33;6.33;;;;;;;;5021592;28;45816;-81
2023/07/07 05:51:23;;;;;;;;;7.67;6.00;;;;;;;;5032326;28;45462;-81
2023/07/07 05:53:48;;;;;;;;;9.67;6.67;;;;;;;;5033222;28;45897;-82
2023/07/07 05:56:17;;;;;;;;;6.00;5.33;;;;;;;;5042193;28;47076;-82
2023/07/07 05:58:42;;;;;;;;;10.00;7.00;;;;;;;;5040127;28;45531;-82
2023/07/07 06:01:10;;;;;;;;;8.00;7.00;;;;;;;;5036735;28;45919;-83
2023/07/07 06:03:37;;;;;;;;;8.33;6.33;;;;;;;;5034430;28;45572;-85
2023/07/07 06:06:02;;;;;;;;;9.67;6.67;;;;;;;;5020770;28;47598;-83
2023/07/07 06:08:27;;;;;;;;;5.00;3.50;;;;;;;;5029389;28;45785;-82
2023/07/07 06:10:52;;;;;;;;;7.33;7.33;;;;;;;;5031070;28;45937;-83
2023/07/07 06:13:18;;;;;;;;;6.00;6.00;;;;;;;;5028431;28;46948;-82
2023/07/07 06:15:44;;;;;;;;;5.33;5.33;;;;;;;;5029302;28;48055;-82
2023/07/07 06:18:09;;;;;;;;;6.00;6.00;;;;;;;;5029350;28;45535;-83
2023/07/07 06:20:34;;;;;;;;;7.00;6.00;;;;;;;;5037309;28;45485;-83
2023/07/07 06:23:00;;;;;;;;;7.00;5.00;;;;;;;;5036158;28;45492;-82
2023/07/07 06:25:25;;;;;;;;;4.50;4.50;;;;;;;;5012553;28;47281;-83
2023/07/07 06:27:51;;;;;;;;;4.25;3.25;;;;;;;;5028405;28;46611;-82
2023/07/07 06:30:16;;;;;;;;;7.50;5.25;;;;;;;;5027877;28;45691;-83
2023/07/07 06:32:42;;;;;;;;;7.25;5.50;;;;;;;;5030649;28;45791;-84
2023/07/07 06:35:07;;;;;;;;;8.33;5.67;;;;;;;;5030983;28;45957;-83
2023/07/07 06:37:32;;;;;;;;;8.33;6.33;;;;;;;;5022319;28;45948;-82
2023/07/07 06:39:58;;;;;;;;;5.33;5.33;;;;;;;;5021624;28;45968;-83
2023/07/07 06:42:23;;;;;;;;;10.33;9.33;;;;;;;;5030390;28;45922;-84
2023/07/07 06:44:48;;;;;;;;;5.25;5.25;;;;;;;;5023803;28;47061;-82
2023/07/07 06:47:16;;;;;;;;;7.67;6.67;;;;;;;;5025632;28;45553;-86
2023/07/07 06:49:41;;;;;;;;;7.67;7.67;;;;;;;;5030316;28;45967;-84
2023/07/07 06:52:07;;;;;;;;;7.33;7.33;;;;;;;;5011464;28;46166;-83
2023/07/07 06:54:32;;;;;;;;;8.67;8.00;;;;;;;;5031096;28;45775;-85
2023/07/07 06:56:58;;;;;;;;;12.25;8.25;;;;;;;;5013257;28;45555;-82
2023/07/07 06:59:23;;;;;;;;;8.50;8.50;;;;;;;;5022181;28;45513;-83
2023/07/07 07:01:48;;;;;;;;;6.67;6.67;;;;;;;;5013783;28;46873;-83
2023/07/07 07:04:21;;;;;;;;;6.00;6.00;;;;;;;;5015810;28;46057;-84
2023/07/07 07:06:46;;;;;;;;;6.25;6.25;;;;;;;;5014603;28;46697;-83
2023/07/07 07:09:14;;;;;;;;;8.50;8.00;;;;;;;;5015904;28;45523;-84
2023/07/07 07:11:40;;;;;;;;;4.67;4.33;;;;;;;;5019727;28;45751;-83
2023/07/07 07:14:05;;;;;;;;;8.00;8.00;;;;;;;;5019565;28;46758;-83
2023/07/07 07:16:31;;;;;;;;;7.00;7.00;;;;;;;;5045900;28;45697;-83
2023/07/07 07:18:56;;;;;;;;;11.00;8.00;;;;;;;;5014914;28;45802;-83
2023/07/07 07:21:21;;;;;;;;;6.00;6.00;;;;;;;;5033676;28;46010;-85
2023/07/07 07:23:47;;;;;;;;;6.50;5.50;;;;;;;;5015622;28;46399;-82
2023/07/07 07:26:12;;;;;;;;;6.75;5.75;;;;;;;;5016278;28;45447;-83
2023/07/07 07:28:37;;;;;;;;;4.75;4.75;;;;;;;;5035399;28;46468;-84
2023/07/07 07:31:02;;;;;;;;;6.50;6.25;;;;;;;;5034632;28;45411;-83
2023/07/07 07:33:28;;;;;;;;;9.00;6.25;;;;;;;;5032451;28;45882;-85
2023/07/07 07:35:53;;;;;;;;;7.00;7.00;;;;;;;;5014374;28;45949;-84
2023/07/07 07:38:22;;;;;;;;;9.00;6.50;;;;;;;;5014572;28;45629;-83
2023/07/07 07:40:50;;;;;;;;;8.00;6.33;;;;;;;;5012158;28;46429;-84
2023/07/07 07:43:15;;;;;;;;;8.67;8.67;;;;;;;;5038515;28;46645;-84
2023/07/07 07:45:41;;;;;;;;;9.00;8.00;;;;;;;;5037934;28;45391;-83
2023/07/07 07:48:06;;;;;;;;;9.00;7.00;;;;;;;;5020889;28;44783;-85
2023/07/07 07:50:33;;;;;;;;;11.00;8.00;;;;;;;;5030743;28;45984;-84
2023/07/07 07:52:59;;;;;;;;;7.00;7.00;;;;;;;;5032555;28;47540;-83
2023/07/07 07:55:25;;;;;;;;;8.33;6.33;;;;;;;;5032485;28;45445;-84
2023/07/07 07:57:50;;;;;;;;;6.67;5.67;;;;;;;;5031585;28;45914;-80
2023/07/07 08:00:15;;;;;;;;;7.67;6.67;;;;;;;;5030017;28;46522;-78
2023/07/07 08:02:41;;;;;;;;;7.67;7.00;;;;;;;;5031105;28;46098;-84
2023/07/07 08:05:06;;;;;;;;;8.25;7.00;;;;;;;;5030965;28;46009;-86
2023/07/07 08:07:42;;;;;;;;;6.33;6.33;;;;;;;;5031278;28;45612;-85
2023/07/07 08:10:08;;;;;;;;;6.50;5.25;;;;;;;;5027637;28;45667;-87
2023/07/07 08:12:34;;;;;;;;;8.00;8.00;;;;;;;;5032327;28;45515;-84
2023/07/07 08:14:59;;;;;;;;;8.67;8.67;;;;;;;;5032498;28;45480;-83
2023/07/07 08:17:24;;;;;;;;;7.33;6.33;;;;;;;;5025569;28;45525;-79
2023/07/07 08:19:49;;;;;;;;;7.00;6.00;;;;;;;;5029640;28;46695;-84
2023/07/07 08:22:19;;;;;;;;;9.00;7.00;;;;;;;;5027020;28;48312;-85
2023/07/07 08:24:49;;;;;;;;;6.00;6.00;;;;;;;;5027720;28;45847;-84
2023/07/07 08:27:15;;;;;;;;;7.67;7.67;;;;;;;;5027132;28;44852;-85
2023/07/07 08:29:41;;;;;;;;;8.00;6.00;;;;;;;;5031064;28;45889;-85
2023/07/07 08:32:07;;;;;;;;;9.25;5.25;;;;;;;;5020191;28;47040;-84
2023/07/07 08:34:32;;;;;;;;;8.00;6.33;;;;;;;;5022614;28;46141;-83
2023/07/07 08:37:00;;;;;;;;;6.67;6.67;;;;;;;;5026162;28;45803;-84
2023/07/07 08:39:28;;;;;;;;;6.00;6.00;;;;;;;;5027352;28;45922;-83
2023/07/07 08:41:55;;;;;;;;;6.00;4.75;;;;;;;;5030008;28;46005;-83
2023/07/07 08:44:23;;;;;;;;;5.67;5.67;;;;;;;;5030387;28;45399;-83
2023/07/07 08:47:07;;;;;;;;;6.00;6.00;;;;;;;;5032748;28;45895;-85
2023/07/07 08:49:52;;;;;;;;;11.00;10.00;;;;;;;;5030761;28;45786;-84
2023/07/07 08:52:21;;;;;;;;;6.33;6.33;;;;;;;;5027515;28;45643;-85
2023/07/07 08:54:49;;;;;;;;;6.50;6.00;;;;;;;;5010564;28;45729;-84
2023/07/07 08:57:18;;;;;;;;;6.50;5.75;;;;;;;;5022878;28;45902;-85
2023/07/07 08:59:59;;;;;;;;;8.25;7.75;;;;;;;;5030542;28;45398;-84
2023/07/07 09:02:45;;;;;;;;;6.25;5.25;;;;;;;;5029951;28;45735;-83
2023/07/07 09:05:20;;;;;;;;;6.67;6.67;;;;;;;;5030369;28;45913;-83
2023/07/07 09:07:55;;;;;;;;;8.50;6.50;;;;;;;;5006010;28;45375;-83
2023/07/07 09:10:40;;;;;;;;;6.25;6.00;;;;;;;;5032429;28;46005;-85
2023/07/07 09:13:11;;;;;;;;;7.00;7.00;;;;;;;;5030449;28;48107;-84
2023/07/07 09:15:41;;;;;;;;;7.00;6.00;;;;;;;;5030592;28;45438;-83
2023/07/07 09:18:19;;;;;;;;;8.25;8.25;;;;;;;;5021329;28;45379;-84
2023/07/07 09:20:46;;;;;;;;;7.33;6.33;;;;;;;;5037897;28;45250;-85
2023/07/07 09:23:16;;;;;;;;;9.25;7.50;;;;;;;;5015059;28;46897;-84
2023/07/07 09:25:47;;;;;;;;;8.25;7.00;;;;;;;;5023710;28;45959;-86
2023/07/07 09:28:14;;;;;;;;;6.25;6.25;;;;;;;;5035916;28;45797;-85
2023/07/07 09:31:03;;;;;;;;;8.50;7.50;;;;;;;;5029939;28;45781;-84
2023/07/07 09:33:28;;;;;;;;;8.25;8.25;;;;;;;;5010326;28;47130;-82
2023/07/07 09:35:57;;;;;;;;;7.75;6.25;;;;;;;;5017883;28;45681;-85
2023/07/07 09:38:28;;;;;;;;;6.75;6.25;;;;;;;;5017735;28;45603;-84
2023/07/07 09:41:03;;;;;;;;;8.50;8.00;;;;;;;;5015837;28;46091;-83
2023/07/07 09:43:47;;;;;;;;;9.75;9.25;;;;;;;;5034051;28;46303;-79
2023/07/07 09:46:12;;;;;;;;;7.50;7.50;;;;;;;;5013415;28;45464;-79
2023/07/07 09:48:46;;;;;;;;;9.50;7.00;;;;;;;;5032325;28;45719;-78
2023/07/07 09:51:12;;;;;;;;;9.00;9.00;;;;;;;;5029534;28;45999;-79
2023/07/07 09:53:39;;;;;;;;;8.75;7.50;;;;;;;;5031459;28;45473;-79
2023/07/07 09:56:09;;;;;;;;;7.50;6.75;;;;;;;;5025105;28;45742;-79
2023/07/07 09:58:44;;;;;;;;;6.67;6.67;;;;;;;;5030339;28;45811;-78
2023/07/07 10:01:10;;;;;;;;;10.00;8.00;;;;;;;;5026835;28;45800;-77
2023/07/07 10:03:37;;;;;;;;;8.33;8.33;;;;;;;;5014858;28;47125;-78
2023/07/07 10:06:06;;;;;;;;;7.75;7.50;;;;;;;;5028618;28;45642;-77
2023/07/07 10:08:31;;;;;;;;;9.50;7.25;;;;;;;;5024227;28;46088;-77
2023/07/07 10:11:11;;;;;;;;;4.75;4.75;;;;;;;;5032366;28;45451;-77
2023/07/07 10:13:36;;;;;;;;;7.75;7.75;;;;;;;;5028902;28;45877;-77
2023/07/07 10:16:06;;;;;;;;;8.25;7.25;;;;;;;;5028025;28;45990;-76
2023/07/07 10:18:32;;;;;;;;;16.67;13.33;;;;;;;;5025498;28;45816;-81
2023/07/07 10:21:00;;;;;;;;;9.00;7.00;;;;;;;;5001842;28;47083;-78
2023/07/07 10:23:27;;;;;;;;;8.00;8.00;;;;;;;;5023161;28;45454;-78
2023/07/07 10:25:52;;;;;;;;;7.67;7.00;;;;;;;;5021254;28;45767;-78
2023/07/07 10:28:19;;;;;;;;;8.33;6.67;;;;;;;;5027223;28;45474;-79
2023/07/07 10:30:45;;;;;;;;;12.33;7.67;;;;;;;;5025520;28;45833;-78
2023/07/07 10:33:12;;;;;;;;;10.00;8.33;;;;;;;;5008518;28;47199;-78
2023/07/07 10:35:37;;;;;;;;;11.67;10.67;;;;;;;;5010368;28;45851;-81
2023/07/07 10:38:03;;;;;;;;;9.00;9.00;;;;;;;;5031199;28;45731;-81
2023/07/07 10:40:29;;;;;;;;;12.00;9.00;;;;;;;;5030832;28;45462;-78
2023/07/07 10:42:55;;;;;;;;;7.67;7.67;;;;;;;;5007646;28;47077;-81
2023/07/07 10:45:21;;;;;;;;;6.50;5.00;;;;;;;;5007717;28;45779;-78
2023/07/07 10:47:46;;;;;;;;;8.00;8.00;;;;;;;;5040821;28;45410;-82
2023/07/07 10:50:15;;;;;;;;;12.33;12.33;;;;;;;;5032335;28;45066;-84
2023/07/07 10:52:40;;;;;;;;;12.67;11.67;;;;;;;;5014853;28;48324;-84
2023/07/07 10:55:05;;;;;;;;;12.00;9.33;;;;;;;;5020910;28;46373;-83
2023/07/07 10:57:51;;;;;;;;;9.33;8.67;;;;;;;;5037213;28;45901;-84
2023/07/07 11:00:22;;;;;;;;;8.50;7.25;;;;;;;;5036485;28;45465;-86
2023/07/07 11:02:53;;;;;;;;;9.50;6.25;;;;;;;;5022334;28;47067;-83
2023/07/07 11:05:22;;;;;;;;;9.75;7.00;;;;;;;;5035915;28;45388;-83
2023/07/07 11:07:53;;;;;;;;;5.25;5.00;;;;;;;;5014889;28;46059;-84
2023/07/07 11:10:40;;;;;;;;;4.75;4.75;;;;;;;;5014863;28;46271;-83
2023/07/07 11:13:28;;;;;;;;;7.50;6.50;;;;;;;;5035581;28;45795;-85
2023/07/07 11:15:54;;;;;;;;;7.00;7.00;;;;;;;;5007888;28;45747;-84
2023/07/07 11:18:30;;;;;;;;;4.50;4.50;;;;;;;;5039987;28;45411;-85
2023/07/07 11:20:58;;;;;;;;;6.50;6.50;;;;;;;;5017619;28;46048;-83
2023/07/07 11:23:24;;;;;;;;;6.25;6.25;;;;;;;;5029490;28;45588;-83
2023/07/07 11:25:57;;;;;;;;;7.50;6.00;;;;;;;;5037998;28;45477;-82
2023/07/07 11:28:32;;;;;;;;;6.00;5.75;;;;;;;;5010231;28;45670;-84
2023/07/07 11:30:57;;;;;;;;;10.67;10.67;;;;;;;;5008139;28;46183;-84
2023/07/07 11:33:45;;;;;;;;;6.75;6.25;;;;;;;;5017598;28;47117;-84
2023/07/07 11:36:29;;;;;;;;;5.50;4.75;;;;;;;;5018585;28;45458;-85
2023/07/07 11:39:09;;;;;;;;;4.00;4.00;;;;;;;;5036856;28;45075;-82
2023/07/07 11:41:41;;;;;;;;;7.00;6.50;;;;;;;;5027753;28;45822;-83
2023/07/07 11:44:18;;;;;;;;;7.00;6.00;;;;;;;;5035148;28;45529;-82
2023/07/07 11:46:57;;;;;;;;;7.50;5.00;;;;;;;;5024773;28;46463;-82
2023/07/07 11:49:29;;;;;;;;;7.00;7.00;;;;;;;;5012828;28;45522;-82
2023/07/07 11:51:54;;;;;;;;;7.00;5.75;;;;;;;;5033215;28;45899;-85
2023/07/07 11:54:25;;;;;;;;;7.33;6.33;;;;;;;;5012513;28;47109;-82
2023/07/07 11:57:09;;;;;;;;;5.00;5.00;;;;;;;;5030188;28;45493;-82
2023/07/07 12:00:02;;;;;;;;;7.00;5.00;;;;;;;;5025592;28;45380;-86
2023/07/07 12:02:40;;;;;;;;;6.25;4.75;;;;;;;;5036305;28;45598;-85
2023/07/07 12:05:12;;;;;;;;;7.25;5.75;;;;;;;;5041319;28;45588;-83
2023/07/07 12:07:44;;;;;;;;;8.25;6.50;;;;;;;;5023800;28;45892;-84
2023/07/07 12:10:16;;;;;;;;;6.75;5.00;;;;;;;;5025806;28;46020;-86
2023/07/07 12:12:55;;;;;;;;;4.25;4.00;;;;;;;;5037325;28;45540;-85
2023/07/07 12:15:20;;;;;;;;;7.00;6.33;;;;;;;;5023968;28;46981;-86
2023/07/07 12:17:50;;;;;;;;;4.67;4.67;;;;;;;;5044619;28;45586;-85
2023/07/07 12:20:24;;;;;;;;;5.00;3.75;;;;;;;;5046712;28;45187;-84
2023/07/07 12:22:50;;;;;;;;;7.50;5.00;;;;;;;;5019036;28;45514;-83
2023/07/07 12:25:25;;;;;;;;;5.25;5.25;;;;;;;;5018259;28;47860;-82
2023/07/07 12:27:51;;;;;;;;;6.75;5.00;;;;;;;;5019069;28;45370;-86
2023/07/07 12:30:30;;;;;;;;;8.00;7.00;;;;;;;;5039970;28;45411;-86
2023/07/07 12:32:57;;;;;;;;;5.25;5.25;;;;;;;;5044607;28;45634;-85
2023/07/07 12:35:42;;;;;;;;;6.25;6.00;;;;;;;;5021896;28;46934;-86
2023/07/07 12:38:15;;;;;;;;;6.25;6.00;;;;;;;;5036929;28;45586;-84
2023/07/07 12:40:44;;;;;;;;;8.00;6.50;;;;;;;;5011846;28;45744;-77
2023/07/07 12:43:25;;;;;;;;;6.00;5.00;;;;;;;;5029415;28;45770;-78
2023/07/07 12:45:52;;;;;;;;;6.25;5.50;;;;;;;;5028045;28;45763;-77
2023/07/07 12:48:19;;;;;;;;;6.33;5.00;;;;;;;;5028835;28;45679;-77
2023/07/07 12:50:45;;;;;;;;;9.25;7.00;;;;;;;;5029801;28;45412;-79
2023/07/07 12:53:12;;;;;;;;;7.50;6.00;;;;;;;;5020514;28;45943;-78
2023/07/07 12:55:55;;;;;;;;;5.25;5.00;;;;;;;;5005685;28;46288;-78
2023/07/07 12:58:26;;;;;;;;;7.25;4.25;;;;;;;;5019908;28;45712;-78
2023/07/07 13:01:04;;;;;;;;;6.00;6.00;;;;;;;;5033498;28;45553;-79
2023/07/07 13:03:30;;;;;;;;;8.00;7.00;;;;;;;;5016364;28;47602;-78
2023/07/07 13:05:55;;;;;;;;;7.00;6.00;;;;;;;;5035636;28;45616;-79
2023/07/07 13:08:36;;;;;;;;;5.00;3.00;;;;;;;;5030630;28;45682;-79
2023/07/07 13:11:06;;;;;;;;;7.00;5.25;;;;;;;;5035047;28;45506;-78
2023/07/07 13:13:37;;;;;;;;;6.00;6.00;;;;;;;;5033865;28;45909;-78
2023/07/07 13:16:03;;;;;;;;;7.33;7.33;;;;;;;;5012273;28;47995;-78
2023/07/07 13:18:28;;;;;;;;;6.00;5.00;;;;;;;;5031103;28;45748;-79
2023/07/07 13:20:53;;;;;;;;;6.25;6.25;;;;;;;;5030809;28;45475;-79
2023/07/07 13:23:39;;;;;;;;;5.00;5.00;;;;;;;;5027868;28;45652;-79
2023/07/07 13:26:04;;;;;;;;;7.50;6.50;;;;;;;;5012362;28;46107;-79
2023/07/07 13:28:30;;;;;;;;;5.00;5.00;;;;;;;;5031270;28;45954;-78
2023/07/07 13:30:56;;;;;;;;;7.25;6.25;;;;;;;;5030384;28;45857;-78
2023/07/07 13:33:23;;;;;;;;;6.00;6.00;;;;;;;;5021161;28;46017;-78
2023/07/07 13:35:50;;;;;;;;;6.00;5.00;;;;;;;;5012907;28;47718;-77
2023/07/07 13:38:17;;;;;;;;;5.75;5.75;;;;;;;;5031713;28;45984;-79
2023/07/07 13:40:43;;;;;;;;;7.33;6.33;;;;;;;;5012771;28;45572;-78
2023/07/07 13:43:35;;;;;;;;;5.33;5.33;;;;;;;;5030774;28;46020;-78
2023/07/07 13:46:10;;;;;;;;;8.67;7.67;;;;;;;;5003746;28;46994;-78
2023/07/07 13:48:35;;;;;;;;;8.33;7.33;;;;;;;;5016096;28;45471;-79
2023/07/07 13:51:03;;;;;;;;;8.00;7.00;;;;;;;;5030883;28;45418;-79
2023/07/07 13:53:28;;;;;;;;;7.75;6.25;;;;;;;;5030563;28;45887;-78
2023/07/07 13:55:54;;;;;;;;;6.33;6.33;;;;;;;;5030265;28;46626;-80
2023/07/07 13:58:21;;;;;;;;;4.75;4.75;;;;;;;;5031360;28;45485;-80
2023/07/07 14:00:54;;;;;;;;;5.00;5.00;;;;;;;;5030352;28;45739;-77
2023/07/07 14:03:20;;;;;;;;;5.00;5.00;;;;;;;;5025156;28;46090;-78
2023/07/07 14:05:48;;;;;;;;;5.00;5.00;;;;;;;;5039401;28;45828;-79
2023/07/07 14:08:18;;;;;;;;;5.33;5.33;;;;;;;;5038791;28;45759;-80
2023/07/07 14:10:47;;;;;;;;;5.50;5.50;;;;;;;;5030756;28;45463;-78
2023/07/07 14:13:14;;;;;;;;;6.00;3.25;;;;;;;;5030626;28;46280;-79
2023/07/07 14:15:44;;;;;;;;;5.75;5.00;;;;;;;;5031160;28;45615;-77
2023/07/07 14:18:10;;;;;;;;;5.50;4.25;;;;;;;;5028495;28;46092;-77
2023/07/07 14:20:47;;;;;;;;;6.00;5.25;;;;;;;;5022568;28;46391;-78
2023/07/07 14:23:14;;;;;;;;;5.00;3.00;;;;;;;;5023437;28;47407;-78
2023/07/07 14:25:41;;;;;;;;;6.00;5.00;;;;;;;;5018570;28;48221;-77
2023/07/07 14:28:18;;;;;;;;;8.00;5.00;;;;;;;;5027147;28;45925;-79
2023/07/07 14:30:48;;;;;;;;;7.00;5.33;;;;;;;;5030979;28;45465;-78
2023/07/07 14:33:16;;;;;;;;;5.00;5.00;;;;;;;;5029793;28;45607;-78
2023/07/07 14:35:41;;;;;;;;;9.67;6.33;;;;;;;;5029815;28;46412;-79
2023/07/07 14:38:29;;;;;;;;;5.75;4.50;;;;;;;;5021558;28;45469;-77
2023/07/07 14:40:55;;;;;;;;;6.25;5.75;;;;;;;;5030599;28;45468;-79
2023/07/07 14:43:22;;;;;;;;;8.00;6.00;;;;;;;;5016972;28;45830;-77
2023/07/07 14:45:48;;;;;;;;;7.50;6.00;;;;;;;;5026609;28;46241;-80